createdAt,value
2018-11-04T11:25:57.070Z,9.70
2018-11-04T11:28:26.740Z,9.80
2018-11-04T11:30:56.461Z,9.80
2018-11-04T11:33:25.614Z,9.70
2018-11-04T11:35:55.119Z,9.70
2018-11-04T11:38:26.350Z,9.70
2018-11-04T11:40:58.584Z,9.70
2018-11-04T11:43:29.051Z,9.80
2018-11-04T11:45:59.686Z,9.90
2018-11-04T11:48:32.322Z,9.90
2018-11-04T11:51:05.519Z,9.80
2018-11-04T11:53:37.105Z,9.90
2018-11-04T12:01:25.412Z,9.70
2018-11-04T12:04:01.180Z,9.70
2018-11-04T12:06:44.207Z,9.80
2018-11-04T12:09:24.439Z,9.70
2018-11-04T12:12:01.379Z,9.70
2018-11-04T12:14:34.248Z,9.70
2018-11-04T12:17:03.898Z,9.80
2018-11-04T12:19:34.917Z,9.80
2018-11-04T12:22:05.383Z,9.70
2018-11-04T12:24:42.266Z,9.60
2018-11-04T12:27:14.208Z,9.60
2018-11-04T12:29:43.228Z,9.60
2018-11-04T12:32:17.273Z,9.50
2018-11-04T12:34:49.803Z,9.50
2018-11-04T12:40:01.217Z,9.60
2018-11-04T12:42:34.171Z,9.60
2018-11-04T12:45:03.229Z,9.70
2018-11-04T12:47:34.684Z,9.70
2018-11-04T12:50:09.465Z,9.70
2018-11-04T12:52:41.637Z,9.70
2018-11-04T12:55:13.722Z,9.70
2018-11-04T12:57:44.677Z,9.80
2018-11-04T13:00:17.238Z,9.80
2018-11-04T13:02:46.363Z,9.80
2018-11-04T13:05:24.667Z,9.80
2018-11-04T13:07:59.129Z,9.80
2018-11-04T13:10:28.219Z,9.80
2018-11-04T13:13:05.681Z,9.80
2018-11-04T13:15:35.437Z,9.90
2018-11-04T13:18:19.530Z,9.80
2018-11-04T13:20:53.226Z,9.70
2018-11-04T13:23:25.420Z,9.70
2018-11-04T13:26:06.445Z,9.70
2018-11-04T13:28:37.314Z,9.70
2018-11-04T13:31:12.732Z,9.80
2018-11-04T13:33:41.805Z,9.70
2018-11-04T13:36:14.474Z,9.80
2018-11-04T13:38:47.192Z,9.80
2018-11-04T13:41:19.966Z,9.80
2018-11-04T13:43:53.556Z,9.70
2018-11-04T13:46:48.247Z,9.60
2018-11-04T13:49:18.633Z,9.50
2018-11-04T13:52:06.068Z,9.40
2018-11-04T13:54:37.352Z,9.50
2018-11-04T13:57:07.188Z,9.40
2018-11-04T13:59:38.193Z,9.50
2018-11-04T14:02:26.689Z,9.50
2018-11-04T14:05:03.248Z,9.50
2018-11-04T14:07:37.490Z,9.50
2018-11-04T14:10:15.668Z,9.50
2018-11-04T14:12:46.342Z,9.40
2018-11-04T14:15:16.300Z,9.40
2018-11-04T14:17:50.629Z,9.40
2018-11-04T14:20:21.076Z,9.50
2018-11-04T14:22:56.168Z,9.40
2018-11-04T14:25:29.647Z,9.40
2018-11-04T14:28:01.188Z,9.40
2018-11-04T14:30:32.835Z,9.40
2018-11-04T14:33:05.743Z,9.40
2018-11-04T14:35:38.797Z,9.40
2018-11-04T14:38:13.721Z,9.50
2018-11-04T14:40:46.910Z,9.40
2018-11-04T14:43:22.267Z,9.40
2018-11-04T14:45:54.120Z,9.50
2018-11-04T14:48:27.484Z,9.50
2018-11-04T14:51:03.697Z,9.40
2018-11-04T14:53:34.872Z,9.40
2018-11-04T14:56:05.465Z,9.50
2018-11-04T14:58:38.629Z,9.50
2018-11-04T15:01:09.262Z,9.50
2018-11-04T15:03:39.268Z,9.50
2018-11-04T15:06:11.612Z,9.50
2018-11-04T15:08:45.628Z,9.50
2018-11-04T15:11:20.517Z,9.40
2018-11-04T15:13:57.894Z,9.40
2018-11-04T15:16:27.756Z,9.40
2018-11-04T15:19:08.757Z,9.40
2018-11-04T15:21:39.746Z,9.40
2018-11-04T15:24:12.303Z,9.30
2018-11-04T15:26:43.565Z,9.40
2018-11-04T15:29:29.831Z,9.40
2018-11-04T15:32:03.514Z,9.40
2018-11-04T15:34:38.638Z,9.40
2018-11-04T15:37:09.311Z,9.40
2018-11-04T15:42:38.184Z,9.40
2018-11-04T15:45:14.684Z,9.40
2018-11-04T15:47:46.962Z,9.40
2018-11-04T15:50:19.234Z,9.30
2018-11-04T15:52:52.800Z,9.30
2018-11-04T15:55:23.261Z,9.30
2018-11-04T15:57:55.396Z,9.30
2018-11-04T16:00:27.664Z,9.20
2018-11-04T16:03:09.132Z,9.20
2018-11-04T16:05:38.785Z,9.20
2018-11-04T16:08:13.170Z,9.20
2018-11-04T16:10:44.638Z,9.20
2018-11-04T16:13:15.798Z,9.20
2018-11-04T16:15:46.623Z,9.20
2018-11-04T16:18:18.554Z,9.20
2018-11-04T16:20:48.605Z,9.20
2018-11-04T16:23:19.172Z,9.10
2018-11-04T16:25:48.665Z,9.10
2018-11-04T16:28:18.268Z,9.10
2018-11-04T16:30:59.278Z,9.10
2018-11-04T16:33:30.382Z,9.10
2018-11-04T16:36:00.451Z,9.10
2018-11-04T16:38:34.475Z,9.10
2018-11-04T16:41:06.178Z,9.00
2018-11-04T16:43:37.784Z,9.00
2018-11-04T16:46:08.961Z,8.90
2018-11-04T16:48:39.412Z,8.90
2018-11-04T16:51:09.690Z,8.90
2018-11-04T16:53:41.160Z,8.90
2018-11-04T16:56:17.601Z,8.90
2018-11-04T16:58:47.706Z,8.80
2018-11-04T17:01:18.004Z,8.80
2018-11-04T17:03:48.525Z,8.80
2018-11-04T17:06:19.707Z,8.80
2018-11-04T17:08:55.169Z,8.80
2018-11-04T17:11:25.363Z,8.90
2018-11-04T17:13:56.710Z,8.80
2018-11-04T17:16:26.760Z,8.80
2018-11-04T17:18:57.415Z,8.70
2018-11-04T17:21:29.961Z,8.70
2018-11-04T17:23:59.934Z,8.70
2018-11-04T17:26:33.082Z,8.60
2018-11-04T17:29:07.799Z,8.70
2018-11-04T17:31:37.510Z,8.60
2018-11-04T17:34:09.282Z,8.60
2018-11-04T17:36:45.590Z,8.60
2018-11-04T17:39:18.771Z,8.60
2018-11-04T17:41:50.108Z,8.60
2018-11-04T17:44:23.465Z,8.60
2018-11-04T17:46:56.692Z,8.60
2018-11-04T17:49:34.180Z,8.60
2018-11-04T17:52:04.257Z,8.60
2018-11-04T17:54:35.432Z,8.60
2018-11-04T17:57:06.830Z,8.60
2018-11-04T17:59:38.695Z,8.60
2018-11-04T18:02:09.586Z,8.60
2018-11-04T18:04:45.614Z,8.60
2018-11-04T18:09:55.682Z,8.60
2018-11-04T18:12:29.016Z,8.50
2018-11-04T18:15:00.475Z,8.50
2018-11-04T18:17:36.096Z,8.60
2018-11-04T18:20:06.212Z,8.60
2018-11-04T18:22:37.597Z,8.60
2018-11-04T18:25:12.573Z,8.50
2018-11-04T18:27:55.575Z,8.50
2018-11-04T18:30:29.922Z,8.50
2018-11-04T18:33:01.726Z,8.50
2018-11-04T18:35:31.399Z,8.60
2018-11-04T18:38:05.979Z,8.60
2018-11-04T18:40:37.921Z,8.60
2018-11-04T18:43:13.133Z,8.70
2018-11-04T18:45:46.676Z,8.60
2018-11-04T18:52:52.708Z,8.50
2018-11-04T18:55:21.996Z,8.60
2018-11-04T19:00:42.597Z,8.60
2018-11-04T19:03:11.793Z,8.60
2018-11-04T19:08:29.176Z,8.70
2018-11-04T19:11:04.922Z,8.70
2018-11-04T19:13:44.708Z,8.70
2018-11-04T19:16:22.395Z,8.70
2018-11-04T19:18:58.083Z,8.70
2018-11-04T19:21:32.337Z,8.70
2018-11-04T19:24:07.299Z,8.70
2018-11-04T19:26:44.075Z,8.70
2018-11-04T19:29:14.187Z,8.70
2018-11-04T19:31:43.738Z,8.70
2018-11-04T19:34:19.278Z,8.80
2018-11-04T19:36:50.207Z,8.80
2018-11-04T19:39:19.371Z,8.80
2018-11-04T19:41:52.706Z,8.80
2018-11-04T19:44:21.857Z,8.80
2018-11-04T19:46:53.030Z,8.80
2018-11-04T19:49:27.812Z,8.80
2018-11-04T19:52:00.424Z,8.80
2018-11-04T19:54:30.285Z,8.90
2018-11-04T19:57:00.799Z,8.90
2018-11-04T19:59:32.220Z,8.90
2018-11-04T20:02:02.562Z,8.90
2018-11-04T20:04:35.724Z,8.90
2018-11-04T20:07:05.261Z,9.00
2018-11-04T20:12:26.716Z,9.00
2018-11-04T20:14:57.367Z,9.00
2018-11-04T20:17:27.122Z,9.00
2018-11-04T20:20:01.685Z,8.90
2018-11-04T20:22:32.562Z,9.00
2018-11-04T20:25:09.256Z,9.00
2018-11-04T20:27:41.262Z,9.00
2018-11-04T20:30:16.075Z,9.00
2018-11-04T20:32:50.974Z,9.00
2018-11-04T20:35:21.451Z,9.00
2018-11-04T20:37:53.330Z,9.00
2018-11-04T20:40:31.208Z,9.00
2018-11-04T20:43:03.789Z,9.00
2018-11-04T20:48:23.653Z,9.00
2018-11-04T20:51:00.674Z,9.10
2018-11-04T20:53:32.640Z,9.10
2018-11-04T20:56:08.401Z,9.10
2018-11-04T20:58:39.682Z,9.10
2018-11-04T21:01:10.797Z,9.20
2018-11-04T21:03:41.324Z,9.10
2018-11-04T21:06:11.495Z,9.10
2018-11-04T21:08:41.196Z,9.10
2018-11-04T21:11:13.631Z,9.10
2018-11-04T21:13:42.602Z,9.10
2018-11-04T21:16:14.252Z,9.10
2018-11-04T21:18:45.865Z,9.10
2018-11-04T21:21:16.226Z,9.10
2018-11-04T21:23:58.901Z,9.20
2018-11-04T21:26:27.796Z,9.20
2018-11-04T21:28:58.981Z,9.10
2018-11-04T21:31:29.460Z,9.20
2018-11-04T21:34:03.094Z,9.10
2018-11-04T21:36:33.260Z,9.10
2018-11-04T21:39:02.683Z,9.10
2018-11-04T21:41:34.303Z,9.10
2018-11-04T21:44:06.024Z,9.10
2018-11-04T21:46:36.064Z,9.10
2018-11-04T21:49:06.878Z,9.20
2018-11-04T21:51:38.196Z,9.10
2018-11-04T21:54:09.941Z,9.20
2018-11-04T21:56:40.654Z,9.20
2018-11-04T21:59:10.594Z,9.20
2018-11-04T22:01:42.652Z,9.20
2018-11-04T22:04:21.993Z,9.20
2018-11-04T22:06:51.564Z,9.20
2018-11-04T22:09:22.522Z,9.20
2018-11-04T22:11:52.414Z,9.20
2018-11-04T22:14:23.452Z,9.30
2018-11-04T22:16:53.714Z,9.30
2018-11-04T22:19:23.108Z,9.20
2018-11-04T22:21:52.938Z,9.20
2018-11-04T22:24:22.310Z,9.20
2018-11-04T22:26:51.266Z,9.30
2018-11-04T22:29:20.654Z,9.30
2018-11-04T22:31:56.192Z,9.30
2018-11-04T22:34:25.676Z,9.20
2018-11-04T22:36:58.149Z,9.30
2018-11-04T22:39:28.695Z,9.30
2018-11-04T22:41:57.662Z,9.30
2018-11-04T22:44:27.137Z,9.30
2018-11-04T22:46:56.498Z,9.20
2018-11-04T22:49:25.622Z,9.20
2018-11-04T22:51:54.761Z,9.20
2018-11-04T22:54:26.083Z,9.20
2018-11-04T22:56:55.196Z,9.20
2018-11-04T22:59:25.846Z,9.20
2018-11-04T23:01:54.977Z,9.10
2018-11-04T23:04:29.376Z,9.10
2018-11-04T23:06:59.108Z,9.10
2018-11-04T23:09:28.035Z,9.20
2018-11-04T23:11:56.964Z,9.10
2018-11-04T23:14:27.600Z,9.10
2018-11-04T23:16:56.473Z,9.10
2018-11-04T23:19:26.317Z,9.10
2018-11-04T23:21:55.319Z,9.10
2018-11-04T23:24:26.056Z,9.10
2018-11-04T23:26:59.551Z,9.10
2018-11-04T23:29:28.555Z,9.10
2018-11-04T23:31:58.114Z,9.10
2018-11-04T23:34:28.560Z,9.10
2018-11-04T23:36:58.355Z,9.10
2018-11-04T23:39:27.513Z,9.10
2018-11-04T23:41:57.176Z,9.10
2018-11-04T23:44:26.706Z,9.10
2018-11-04T23:46:57.593Z,9.10
2018-11-04T23:49:27.846Z,9.10
2018-11-04T23:51:56.712Z,9.10
2018-11-04T23:54:25.635Z,9.10
2018-11-04T23:56:56.242Z,9.10
2018-11-04T23:59:25.066Z,9.10
